Roald Amundsen — DARG — position and weather

sailwx.info

Track history (hours):
 
Tides and Currents Weather Stations Pressure Air Temp Water Temp Dewpoint Dewpoint Depression Visibility Wind Speed Wind Dir Waves Ship Positions

Roald Amundsen (Germany)

Built as a deep sea lugger in 1952. Converted and rigged as a traditional brig in 1992.

Ship's website: http://www.sailtraining.de/

Last reported at 2020-Sep-22 16:21 UTC. Time now 2020-Sep-23 03:19 UTC.
Position N 53°35' E 006°21'.

Length 50 m; beam 7.4 m; draft 4.5 m.

Type: Sailing vessel. MMSI: 211215170.

Date/timePositionNaut miles runAvg speedWind from/ knotsBaromVisibWave heightAir tempDewpointWater temp
2020-Sep-22 16:21N 53°35' E 006°21'0 0.0
2020-Sep-22 15:26N 53°35' E 006°21'4 1.1
2020-Sep-22 11:58N 53°36' E 006°14'4 4.3
2020-Sep-22 11:00N 53°36' E 006°21'0 0.0
2020-Sep-22 10:00N 53°36' E 006°21'0 0.0
2020-Sep-22 09:30N 53°36' E 006°21'0 0.0
2020-Sep-22 08:00N 53°36' E 006°21'0 0.0
2020-Sep-22 07:27N 53°36' E 006°21'0 0.1
2020-Sep-22 07:00N 53°36' E 006°21'0 0.0
2020-Sep-22 05:00N 53°36' E 006°21'0 0.0
2020-Sep-22 04:00N 53°36' E 006°21'0 0.0
2020-Sep-22 03:24N 53°36' E 006°21'0 0.0
2020-Sep-21 22:39N 53°36' E 006°21'0 0.0
2020-Sep-21 22:00N 53°36' E 006°21'0 0.0
2020-Sep-21 21:30N 53°36' E 006°21'0 0.0
2020-Sep-21 20:30N 53°36' E 006°21'0 0.0
2020-Sep-21 17:30N 53°36' E 006°21'7 4.9
2020-Sep-21 16:00N 53°42' E 006°15'3 1.7
2020-Sep-21 14:00N 53°41' E 006°21'4 1.3
2020-Sep-21 10:29N 53°37' E 006°24'10 4.8
2020-Sep-21 08:30N 53°34' E 006°40'6 6.1
2020-Sep-21 07:30N 53°30' E 006°48'1 0.4
2020-Sep-21 05:18N 53°29' E 006°48'0 0.0
2020-Sep-21 01:30N 53°29' E 006°48'0 0.0
2020-Sep-21 00:30N 53°29' E 006°48'0 0.0
2020-Sep-20 23:30N 53°29' E 006°48'0 0.0
2020-Sep-20 19:27N 53°29' E 006°48'0 0.1
2020-Sep-20 18:51N 53°29' E 006°48'0 0.0
2020-Sep-20 18:00N 53°29' E 006°48'0 0.0
2020-Sep-20 17:29N 53°29' E 006°48'2 4.4
2020-Sep-20 17:00N 53°28' E 006°51'5 9.5
2020-Sep-20 16:30N 53°25' E 006°56'5 9.4
2020-Sep-20 16:00N 53°21' E 006°60'7 4.9
2020-Sep-20 14:30N 53°21' E 007°12'0 0.2
2020-Sep-20 12:30N 53°21' E 007°12'0 0.0
2020-Sep-20 12:00N 53°21' E 007°12'0 0.0
2020-Sep-20 11:29N 53°21' E 007°12'0 0.0
2020-Sep-20 10:29N 53°21' E 007°12'0 0.0
2020-Sep-20 08:29N 53°21' E 007°12'0 0.0
2020-Sep-20 06:59N 53°21' E 007°12'0 0.0
2020-Sep-20 05:59N 53°21' E 007°12'0 0.0
2020-Sep-19 23:59N 53°21' E 007°12'0 0.0
2020-Sep-19 20:29N 53°21' E 007°12'0 0.0
2020-Sep-19 18:53N 53°21' E 007°12'0 0.0
2020-Sep-19 17:29N 53°21' E 007°12'0 0.0
2020-Sep-19 16:29N 53°21' E 007°12'0 0.0
2020-Sep-19 13:59N 53°21' E 007°12'0 0.0
2020-Sep-19 10:59N 53°21' E 007°12'0 0.0
2020-Sep-19 09:59N 53°21' E 007°12'0 0.0
2020-Sep-19 07:29N 53°21' E 007°12'0 0.0
2020-Sep-19 06:59N 53°21' E 007°12'0 0.0
2020-Sep-19 04:59N 53°21' E 007°12'0 0.0
2020-Sep-19 04:29N 53°21' E 007°12'0 0.0
2020-Sep-19 02:29N 53°21' E 007°12'0 0.0
2020-Sep-19 01:29N 53°21' E 007°12'0 0.0
2020-Sep-18 23:29N 53°21' E 007°12'0 0.0
2020-Sep-18 22:29N 53°21' E 007°12'0 0.0
2020-Sep-18 19:59N 53°21' E 007°12'0 0.0
2020-Sep-18 18:59N 53°21' E 007°12'0 0.0
2020-Sep-18 17:59N 53°21' E 007°12'0 0.0
2020-Sep-18 14:59N 53°21' E 007°12'0 0.0
2020-Sep-18 13:29N 53°21' E 007°12'0 0.0
2020-Sep-18 10:29N 53°21' E 007°12'0 0.0
2020-Sep-18 07:28N 53°21' E 007°12'0 0.0
2020-Sep-18 06:58N 53°21' E 007°12'0 0.0
2020-Sep-18 04:58N 53°21' E 007°12'0 0.0
2020-Sep-18 02:58N 53°21' E 007°12'0 0.0
2020-Sep-18 01:28N 53°21' E 007°12'0 0.0
2020-Sep-18 00:58N 53°21' E 007°12'0 0.0
2020-Sep-17 19:28N 53°21' E 007°12'0 0.0
2020-Sep-17 16:58N 53°21' E 007°12'0 0.0
2020-Sep-17 15:28N 53°21' E 007°12'0 0.0
2020-Sep-17 14:28N 53°21' E 007°12'0 0.0
2020-Sep-17 11:58N 53°21' E 007°12'0 0.0
2020-Sep-17 07:58N 53°21' E 007°12'0 0.0
2020-Sep-17 07:28N 53°21' E 007°12'0 0.0
2020-Sep-17 06:58N 53°21' E 007°12'0 0.0
2020-Sep-17 06:28N 53°21' E 007°12'0 0.0
2020-Sep-17 03:28N 53°21' E 007°12'0 0.0
2020-Sep-17 02:58N 53°21' E 007°12'0 0.0
2020-Sep-17 01:28N 53°21' E 007°12'0 0.0
2020-Sep-17 00:58N 53°21' E 007°12'0 0.0
2020-Sep-17 00:28N 53°21' E 007°12'0 0.0
2020-Sep-16 23:58N 53°21' E 007°12'0 0.0
2020-Sep-16 20:28N 53°21' E 007°12'0 0.0
2020-Sep-16 18:28N 53°21' E 007°12'0 0.0
2020-Sep-16 17:58N 53°21' E 007°12'0 0.0
2020-Sep-16 16:58N 53°21' E 007°12'0 0.0
2020-Sep-16 16:28N 53°21' E 007°12'0 0.0
2020-Sep-16 11:58N 53°21' E 007°12'0 0.0
2020-Sep-16 06:58N 53°21' E 007°12'0 0.0
2020-Sep-16 04:58N 53°21' E 007°12'0 0.0
2020-Sep-16 04:28N 53°21' E 007°12'0 0.0
2020-Sep-16 03:58N 53°21' E 007°12'0 0.0
2020-Sep-16 02:58N 53°21' E 007°12'0 0.0
2020-Sep-15 23:58N 53°21' E 007°12'0 0.0
2020-Sep-15 23:28N 53°21' E 007°12'0 0.0
2020-Sep-15 22:28N 53°21' E 007°12'0 0.0
2020-Sep-15 20:28N 53°21' E 007°12'0 0.0
2020-Sep-15 13:58N 53°21' E 007°12'0 0.0
2020-Sep-15 13:28N 53°21' E 007°12'0 0.0
2020-Sep-15 11:58N 53°21' E 007°12'0 0.0
2020-Sep-15 09:28N 53°21' E 007°12'0 0.0
2020-Sep-15 07:28N 53°21' E 007°12'0 0.0
2020-Sep-15 05:28N 53°21' E 007°12'0 0.0
2020-Sep-15 02:58N 53°21' E 007°12'0 0.0
2020-Sep-15 01:58N 53°21' E 007°12'0 0.0
2020-Sep-14 20:58N 53°21' E 007°12'0 0.0
2020-Sep-14 19:58N 53°21' E 007°12'0 0.0
2020-Sep-14 14:25N 53°21' E 007°12'0 0.0
2020-Sep-14 12:28N 53°21' E 007°12'0 0.0
2020-Sep-14 09:55N 53°21' E 007°12'0 0.0
2020-Sep-14 06:28N 53°21' E 007°12'0 0.0
2020-Sep-14 05:28N 53°21' E 007°12'0 0.0
2020-Sep-14 04:58N 53°21' E 007°12'0 0.0
2020-Sep-14 03:58N 53°21' E 007°12'0 0.0
2020-Sep-14 03:28N 53°21' E 007°12'0 0.0
2020-Sep-14 02:58N 53°21' E 007°12'0 0.0
2020-Sep-14 02:28N 53°21' E 007°12'0 0.0
2020-Sep-14 00:58N 53°21' E 007°12'0 0.0
2020-Sep-13 22:28N 53°21' E 007°12'0 0.0
2020-Sep-13 21:58N 53°21' E 007°12'0 0.0
2020-Sep-13 21:19N 53°21' E 007°12'0 0.0
2020-Sep-13 15:58N 53°21' E 007°12'0 0.0
2020-Sep-13 15:28N 53°21' E 007°12'0 0.0
2020-Sep-13 14:28N 53°21' E 007°12'0 0.0
2020-Sep-13 13:28N 53°21' E 007°12'0 0.0
2020-Sep-13 08:58N 53°21' E 007°12'0 0.0
2020-Sep-13 08:28N 53°21' E 007°12'0 0.0
2020-Sep-13 04:58N 53°21' E 007°12'0 0.0
2020-Sep-13 04:28N 53°21' E 007°12'0 0.0
2020-Sep-13 03:58N 53°21' E 007°12'0 0.0
2020-Sep-13 01:58N 53°21' E 007°12'0 0.0
2020-Sep-12 23:28N 53°21' E 007°12'0 0.0
2020-Sep-12 20:58N 53°21' E 007°12'0 0.0
2020-Sep-12 20:28N 53°21' E 007°12'0 0.0
2020-Sep-12 19:28N 53°21' E 007°12'0 0.0
2020-Sep-12 17:28N 53°21' E 007°12'  
Track history (hours):
 
Tides and Currents Weather Stations Pressure Air Temp Water Temp Dewpoint Dewpoint Depression Visibility Wind Speed Wind Dir Waves Ship Positions

Roald Amundsen (Germany)

Built as a deep sea lugger in 1952. Converted and rigged as a traditional brig in 1992.

Ship's website: http://www.sailtraining.de/

Last reported at 2020-Sep-22 16:21 UTC. Time now 2020-Sep-23 03:19 UTC.
Position N 53°35' E 006°21'.

Length 50 m; beam 7.4 m; draft 4.5 m.

Type: Sailing vessel. MMSI: 211215170.

Date/timePositionNaut miles runAvg speedWind from/ knotsBaromVisibWave heightAir tempDewpointWater temp
2020-Sep-22 16:21N 53°35' E 006°21'0 0.0
2020-Sep-22 15:26N 53°35' E 006°21'4 1.1
2020-Sep-22 11:58N 53°36' E 006°14'4 4.3
2020-Sep-22 11:00N 53°36' E 006°21'0 0.0
2020-Sep-22 10:00N 53°36' E 006°21'0 0.0
2020-Sep-22 09:30N 53°36' E 006°21'0 0.0
2020-Sep-22 08:00N 53°36' E 006°21'0 0.0
2020-Sep-22 07:27N 53°36' E 006°21'0 0.1
2020-Sep-22 07:00N 53°36' E 006°21'0 0.0
2020-Sep-22 05:00N 53°36' E 006°21'0 0.0
2020-Sep-22 04:00N 53°36' E 006°21'0 0.0
2020-Sep-22 03:24N 53°36' E 006°21'0 0.0
2020-Sep-21 22:39N 53°36' E 006°21'0 0.0
2020-Sep-21 22:00N 53°36' E 006°21'0 0.0
2020-Sep-21 21:30N 53°36' E 006°21'0 0.0
2020-Sep-21 20:30N 53°36' E 006°21'0 0.0
2020-Sep-21 17:30N 53°36' E 006°21'7 4.9
2020-Sep-21 16:00N 53°42' E 006°15'3 1.7
2020-Sep-21 14:00N 53°41' E 006°21'4 1.3
2020-Sep-21 10:29N 53°37' E 006°24'10 4.8
2020-Sep-21 08:30N 53°34' E 006°40'6 6.1
2020-Sep-21 07:30N 53°30' E 006°48'1 0.4
2020-Sep-21 05:18N 53°29' E 006°48'0 0.0
2020-Sep-21 01:30N 53°29' E 006°48'0 0.0
2020-Sep-21 00:30N 53°29' E 006°48'0 0.0
2020-Sep-20 23:30N 53°29' E 006°48'0 0.0
2020-Sep-20 19:27N 53°29' E 006°48'0 0.1
2020-Sep-20 18:51N 53°29' E 006°48'0 0.0
2020-Sep-20 18:00N 53°29' E 006°48'0 0.0
2020-Sep-20 17:29N 53°29' E 006°48'2 4.4
2020-Sep-20 17:00N 53°28' E 006°51'5 9.5
2020-Sep-20 16:30N 53°25' E 006°56'5 9.4
2020-Sep-20 16:00N 53°21' E 006°60'7 4.9
2020-Sep-20 14:30N 53°21' E 007°12'0 0.2
2020-Sep-20 12:30N 53°21' E 007°12'0 0.0
2020-Sep-20 12:00N 53°21' E 007°12'0 0.0
2020-Sep-20 11:29N 53°21' E 007°12'0 0.0
2020-Sep-20 10:29N 53°21' E 007°12'0 0.0
2020-Sep-20 08:29N 53°21' E 007°12'0 0.0
2020-Sep-20 06:59N 53°21' E 007°12'0 0.0
2020-Sep-20 05:59N 53°21' E 007°12'0 0.0
2020-Sep-19 23:59N 53°21' E 007°12'0 0.0
2020-Sep-19 20:29N 53°21' E 007°12'0 0.0
2020-Sep-19 18:53N 53°21' E 007°12'0 0.0
2020-Sep-19 17:29N 53°21' E 007°12'0 0.0
2020-Sep-19 16:29N 53°21' E 007°12'0 0.0
2020-Sep-19 13:59N 53°21' E 007°12'0 0.0
2020-Sep-19 10:59N 53°21' E 007°12'0 0.0
2020-Sep-19 09:59N 53°21' E 007°12'0 0.0
2020-Sep-19 07:29N 53°21' E 007°12'0 0.0
2020-Sep-19 06:59N 53°21' E 007°12'0 0.0
2020-Sep-19 04:59N 53°21' E 007°12'0 0.0
2020-Sep-19 04:29N 53°21' E 007°12'0 0.0
2020-Sep-19 02:29N 53°21' E 007°12'0 0.0
2020-Sep-19 01:29N 53°21' E 007°12'0 0.0
2020-Sep-18 23:29N 53°21' E 007°12'0 0.0
2020-Sep-18 22:29N 53°21' E 007°12'0 0.0
2020-Sep-18 19:59N 53°21' E 007°12'0 0.0
2020-Sep-18 18:59N 53°21' E 007°12'0 0.0
2020-Sep-18 17:59N 53°21' E 007°12'0 0.0
2020-Sep-18 14:59N 53°21' E 007°12'0 0.0
2020-Sep-18 13:29N 53°21' E 007°12'0 0.0
2020-Sep-18 10:29N 53°21' E 007°12'0 0.0
2020-Sep-18 07:28N 53°21' E 007°12'0 0.0
2020-Sep-18 06:58N 53°21' E 007°12'0 0.0
2020-Sep-18 04:58N 53°21' E 007°12'0 0.0
2020-Sep-18 02:58N 53°21' E 007°12'0 0.0
2020-Sep-18 01:28N 53°21' E 007°12'0 0.0
2020-Sep-18 00:58N 53°21' E 007°12'0 0.0
2020-Sep-17 19:28N 53°21' E 007°12'0 0.0
2020-Sep-17 16:58N 53°21' E 007°12'0 0.0
2020-Sep-17 15:28N 53°21' E 007°12'0 0.0
2020-Sep-17 14:28N 53°21' E 007°12'0 0.0
2020-Sep-17 11:58N 53°21' E 007°12'0 0.0
2020-Sep-17 07:58N 53°21' E 007°12'0 0.0
2020-Sep-17 07:28N 53°21' E 007°12'0 0.0
2020-Sep-17 06:58N 53°21' E 007°12'0 0.0
2020-Sep-17 06:28N 53°21' E 007°12'0 0.0
2020-Sep-17 03:28N 53°21' E 007°12'0 0.0
2020-Sep-17 02:58N 53°21' E 007°12'0 0.0
2020-Sep-17 01:28N 53°21' E 007°12'0 0.0
2020-Sep-17 00:58N 53°21' E 007°12'0 0.0
2020-Sep-17 00:28N 53°21' E 007°12'0 0.0
2020-Sep-16 23:58N 53°21' E 007°12'0 0.0
2020-Sep-16 20:28N 53°21' E 007°12'0 0.0
2020-Sep-16 18:28N 53°21' E 007°12'0 0.0
2020-Sep-16 17:58N 53°21' E 007°12'0 0.0
2020-Sep-16 16:58N 53°21' E 007°12'0 0.0
2020-Sep-16 16:28N 53°21' E 007°12'0 0.0
2020-Sep-16 11:58N 53°21' E 007°12'0 0.0
2020-Sep-16 06:58N 53°21' E 007°12'0 0.0
2020-Sep-16 04:58N 53°21' E 007°12'0 0.0
2020-Sep-16 04:28N 53°21' E 007°12'0 0.0
2020-Sep-16 03:58N 53°21' E 007°12'0 0.0
2020-Sep-16 02:58N 53°21' E 007°12'0 0.0
2020-Sep-15 23:58N 53°21' E 007°12'0 0.0
2020-Sep-15 23:28N 53°21' E 007°12'0 0.0
2020-Sep-15 22:28N 53°21' E 007°12'0 0.0
2020-Sep-15 20:28N 53°21' E 007°12'0 0.0
2020-Sep-15 13:58N 53°21' E 007°12'0 0.0
2020-Sep-15 13:28N 53°21' E 007°12'0 0.0
2020-Sep-15 11:58N 53°21' E 007°12'0 0.0
2020-Sep-15 09:28N 53°21' E 007°12'0 0.0
2020-Sep-15 07:28N 53°21' E 007°12'0 0.0
2020-Sep-15 05:28N 53°21' E 007°12'0 0.0
2020-Sep-15 02:58N 53°21' E 007°12'0 0.0
2020-Sep-15 01:58N 53°21' E 007°12'0 0.0
2020-Sep-14 20:58N 53°21' E 007°12'0 0.0
2020-Sep-14 19:58N 53°21' E 007°12'0 0.0
2020-Sep-14 14:25N 53°21' E 007°12'0 0.0
2020-Sep-14 12:28N 53°21' E 007°12'0 0.0
2020-Sep-14 09:55N 53°21' E 007°12'0 0.0
2020-Sep-14 06:28N 53°21' E 007°12'0 0.0
2020-Sep-14 05:28N 53°21' E 007°12'0 0.0
2020-Sep-14 04:58N 53°21' E 007°12'0 0.0
2020-Sep-14 03:58N 53°21' E 007°12'0 0.0
2020-Sep-14 03:28N 53°21' E 007°12'0 0.0
2020-Sep-14 02:58N 53°21' E 007°12'0 0.0
2020-Sep-14 02:28N 53°21' E 007°12'0 0.0
2020-Sep-14 00:58N 53°21' E 007°12'0 0.0
2020-Sep-13 22:28N 53°21' E 007°12'0 0.0
2020-Sep-13 21:58N 53°21' E 007°12'0 0.0
2020-Sep-13 21:19N 53°21' E 007°12'0 0.0
2020-Sep-13 15:58N 53°21' E 007°12'0 0.0
2020-Sep-13 15:28N 53°21' E 007°12'0 0.0
2020-Sep-13 14:28N 53°21' E 007°12'0 0.0
2020-Sep-13 13:28N 53°21' E 007°12'0 0.0
2020-Sep-13 08:58N 53°21' E 007°12'0 0.0
2020-Sep-13 08:28N 53°21' E 007°12'0 0.0
2020-Sep-13 04:58N 53°21' E 007°12'0 0.0
2020-Sep-13 04:28N 53°21' E 007°12'0 0.0
2020-Sep-13 03:58N 53°21' E 007°12'0 0.0
2020-Sep-13 01:58N 53°21' E 007°12'0 0.0
2020-Sep-12 23:28N 53°21' E 007°12'0 0.0
2020-Sep-12 20:58N 53°21' E 007°12'0 0.0
2020-Sep-12 20:28N 53°21' E 007°12'0 0.0
2020-Sep-12 19:28N 53°21' E 007°12'0 0.0
2020-Sep-12 17:28N 53°21' E 007°12'  

Dump ship's entire track history